Time;durP1;ratioP1;P1;durP2;ratioP2;P2;SDS_P1;SDS_P2;PMS_P1;PMS_P2;Temp;Humidity;BMP_temperature;BMP_pressure;BME280_temperature;BME280_humidity;BME280_pressure;Samples;Min_cycle;Max_cycle;Signal;HPM_P1;HPM_P2
2022/11/03 00:00:41;;;;;;;12.50;9.13;;;;;;;;;;5070691;28;20456;-76
2022/11/03 00:03:08;;;;;;;15.57;10.20;;;;;;;;;;5069920;28;20464;-76
2022/11/03 00:08:21;;;;;;;10.30;8.83;;;;;;;;;;5069680;28;20421;-76
2022/11/03 00:10:49;;;;;;;14.70;9.50;;;;;;;;;;5070450;28;20479;-76
2022/11/03 00:13:16;;;;;;;16.10;9.30;;;;;;;;;;5069678;28;20483;-77
2022/11/03 00:15:48;;;;;;;14.03;10.30;;;;;;;;;;5070353;28;20811;-76
2022/11/03 00:18:15;;;;;;;12.83;9.37;;;;;;;;;;5070552;28;20440;-76
2022/11/03 00:20:44;;;;;;;14.43;9.30;;;;;;;;;;5070541;28;20794;-76
2022/11/03 00:23:11;;;;;;;11.30;9.53;;;;;;;;;;5069673;28;20461;-77
2022/11/03 00:25:38;;;;;;;10.20;9.30;;;;;;;;;;5070108;28;20469;-76
2022/11/03 00:28:05;;;;;;;10.60;9.23;;;;;;;;;;5070203;28;20448;-76
2022/11/03 00:30:32;;;;;;;12.60;9.67;;;;;;;;;;5070466;28;20451;-76
2022/11/03 00:32:59;;;;;;;16.40;10.70;;;;;;;;;;5069218;28;20494;-77
2022/11/03 00:35:26;;;;;;;13.47;9.93;;;;;;;;;;5070089;28;20534;-78
2022/11/03 00:37:55;;;;;;;16.83;10.10;;;;;;;;;;5069922;28;20480;-77
2022/11/03 00:40:22;;;;;;;12.97;10.23;;;;;;;;;;5070199;28;20466;-76
2022/11/03 00:42:49;;;;;;;12.23;10.90;;;;;;;;;;5069725;28;21104;-77
2022/11/03 00:45:16;;;;;;;10.63;9.53;;;;;;;;;;5070128;28;20943;-76
2022/11/03 00:48:28;;;;;;;12.67;9.10;;;;;;;;;;5070358;28;20936;-75
2022/11/03 00:50:30;;;;;;;12.70;9.67;;;;;;;;;;5070682;28;20523;-76
2022/11/03 00:52:59;;;;;;;12.37;9.77;;;;;;;;;;5069341;28;20468;-78
2022/11/03 00:55:26;;;;;;;14.20;9.70;;;;;;;;;;5070217;28;20440;-77
2022/11/03 00:57:53;;;;;;;12.70;9.67;;;;;;;;;;5070303;28;20480;-78
2022/11/03 01:00:20;;;;;;;13.13;10.00;;;;;;;;;;5070542;28;20959;-77
2022/11/03 01:02:47;;;;;;;11.50;9.70;;;;;;;;;;5065262;28;20991;-77
2022/11/03 01:08:01;;;;;;;12.47;9.70;;;;;;;;;;5069881;28;20505;-76
2022/11/03 01:10:28;;;;;;;12.60;9.50;;;;;;;;;;5070282;28;20811;-76
2022/11/03 01:12:55;;;;;;;13.30;10.10;;;;;;;;;;5069046;28;21316;-75
2022/11/03 01:15:23;;;;;;;16.43;9.40;;;;;;;;;;5069902;28;21066;-77
2022/11/03 01:17:50;;;;;;;14.90;9.70;;;;;;;;;;5070160;28;20980;-75
2022/11/03 01:20:17;;;;;;;15.70;9.80;;;;;;;;;;5074200;28;20444;-76
2022/11/03 01:22:44;;;;;;;12.03;10.13;;;;;;;;;;5073101;28;20477;-77
2022/11/03 01:25:13;;;;;;;14.60;10.50;;;;;;;;;;5073650;28;20447;-76
2022/11/03 01:27:40;;;;;;;11.50;9.70;;;;;;;;;;5074241;28;20436;-77
2022/11/03 01:30:07;;;;;;;11.00;9.00;;;;;;;;;;5073791;28;20445;-76
2022/11/03 01:32:34;;;;;;;13.73;9.50;;;;;;;;;;5073501;28;20464;-76
2022/11/03 01:35:01;;;;;;;13.80;9.13;;;;;;;;;;5073836;28;20430;-76
2022/11/03 01:37:28;;;;;;;15.13;10.00;;;;;;;;;;5073679;28;20484;-76
2022/11/03 01:39:56;;;;;;;18.50;9.87;;;;;;;;;;5074303;28;20448;-77
2022/11/03 01:42:24;;;;;;;11.20;8.83;;;;;;;;;;5074168;28;20479;-77
2022/11/03 01:44:51;;;;;;;11.87;9.00;;;;;;;;;;5067207;28;20446;-76
2022/11/03 01:47:22;;;;;;;10.40;9.40;;;;;;;;;;5073832;28;20651;-76
2022/11/03 01:49:50;;;;;;;11.67;10.47;;;;;;;;;;5074222;28;20429;-77
2022/11/03 01:52:20;;;;;;;13.57;9.60;;;;;;;;;;5072726;28;20978;-77
2022/11/03 01:54:49;;;;;;;13.60;9.90;;;;;;;;;;5072434;28;20466;-77
2022/11/03 01:57:17;;;;;;;12.90;9.87;;;;;;;;;;5072854;28;20476;-78
2022/11/03 01:59:47;;;;;;;13.00;10.00;;;;;;;;;;5073234;28;20450;-75
2022/11/03 02:02:14;;;;;;;10.43;9.23;;;;;;;;;;5073127;28;20464;-77
2022/11/03 02:04:42;;;;;;;16.10;9.70;;;;;;;;;;5072020;28;20467;-76
2022/11/03 02:07:14;;;;;;;11.87;9.70;;;;;;;;;;5072493;28;20447;-77
2022/11/03 02:09:41;;;;;;;10.83;9.27;;;;;;;;;;5072767;28;20454;-77
2022/11/03 02:12:09;;;;;;;11.07;9.03;;;;;;;;;;5070194;28;20469;-76
2022/11/03 02:14:37;;;;;;;12.47;9.43;;;;;;;;;;5052307;28;20989;-76
2022/11/03 02:17:08;;;;;;;11.57;8.83;;;;;;;;;;5054788;28;20477;-77
2022/11/03 02:19:38;;;;;;;12.67;9.73;;;;;;;;;;5058980;28;20448;-76
2022/11/03 02:22:10;;;;;;;11.93;9.60;;;;;;;;;;5058999;28;20495;-76
2022/11/03 02:24:43;;;;;;;13.93;9.87;;;;;;;;;;5057929;28;20448;-75
2022/11/03 02:27:12;;;;;;;12.67;10.03;;;;;;;;;;5059308;28;20446;-76
2022/11/03 02:29:39;;;;;;;11.00;9.47;;;;;;;;;;5059091;28;20442;-76
2022/11/03 02:32:08;;;;;;;11.73;10.07;;;;;;;;;;5060348;28;20827;-76
2022/11/03 02:34:40;;;;;;;10.80;9.80;;;;;;;;;;5058404;28;20467;-76
2022/11/03 02:37:11;;;;;;;12.40;8.67;;;;;;;;;;5059113;28;20477;-77
2022/11/03 02:39:40;;;;;;;13.60;9.43;;;;;;;;;;5058947;28;20450;-77
2022/11/03 02:42:08;;;;;;;13.17;9.60;;;;;;;;;;5057792;28;20464;-76
2022/11/03 02:44:37;;;;;;;11.73;9.53;;;;;;;;;;5055526;28;20444;-76
2022/11/03 02:47:08;;;;;;;11.60;9.47;;;;;;;;;;5053289;28;20537;-76
2022/11/03 02:49:38;;;;;;;10.70;9.70;;;;;;;;;;5054778;28;20456;-76
2022/11/03 02:52:06;;;;;;;12.00;10.67;;;;;;;;;;5056853;28;20476;-76
2022/11/03 02:54:35;;;;;;;12.03;10.23;;;;;;;;;;5056629;28;20595;-76
2022/11/03 02:57:06;;;;;;;11.93;10.63;;;;;;;;;;5056163;28;20491;-76
2022/11/03 02:59:37;;;;;;;11.97;9.10;;;;;;;;;;5057029;28;20451;-77
2022/11/03 03:02:08;;;;;;;13.00;10.23;;;;;;;;;;5056334;28;20470;-76
2022/11/03 03:04:37;;;;;;;16.50;10.37;;;;;;;;;;5055938;28;20441;-76
2022/11/03 03:07:06;;;;;;;12.07;10.80;;;;;;;;;;5056227;28;20438;-76
2022/11/03 03:09:36;;;;;;;13.03;11.63;;;;;;;;;;5056010;28;20450;-77
2022/11/03 03:12:04;;;;;;;14.73;10.10;;;;;;;;;;5056887;28;20468;-77
2022/11/03 03:14:32;;;;;;;12.57;10.83;;;;;;;;;;5054650;28;20438;-76
2022/11/03 03:17:01;;;;;;;11.67;10.57;;;;;;;;;;5057709;28;20610;-76
2022/11/03 03:19:33;;;;;;;12.37;10.53;;;;;;;;;;5057662;28;20449;-77
2022/11/03 03:22:05;;;;;;;17.33;10.77;;;;;;;;;;5051118;28;20474;-76
2022/11/03 03:24:41;;;;;;;12.50;11.23;;;;;;;;;;5050533;28;20535;-76
2022/11/03 03:27:10;;;;;;;13.63;10.40;;;;;;;;;;5051100;28;21054;-76
2022/11/03 03:29:41;;;;;;;12.17;10.17;;;;;;;;;;5050961;28;20449;-76
2022/11/03 03:32:09;;;;;;;14.43;10.60;;;;;;;;;;5050939;28;20470;-76
2022/11/03 03:34:39;;;;;;;11.77;10.57;;;;;;;;;;5049965;28;20837;-77
2022/11/03 03:37:07;;;;;;;16.33;11.07;;;;;;;;;;5050894;28;20787;-77
2022/11/03 03:39:36;;;;;;;14.87;10.37;;;;;;;;;;5051127;28;20446;-77
2022/11/03 03:42:04;;;;;;;12.47;10.80;;;;;;;;;;5049542;28;20806;-77
2022/11/03 03:44:31;;;;;;;17.87;11.60;;;;;;;;;;5049797;28;20459;-76
2022/11/03 03:47:00;;;;;;;13.47;11.03;;;;;;;;;;5050317;28;20438;-76
2022/11/03 03:49:27;;;;;;;14.60;11.40;;;;;;;;;;5050797;28;20446;-76
2022/11/03 03:51:56;;;;;;;13.43;11.60;;;;;;;;;;5050829;28;20454;-77
2022/11/03 03:54:23;;;;;;;14.27;11.47;;;;;;;;;;5050212;28;20447;-76
2022/11/03 03:56:54;;;;;;;19.50;10.50;;;;;;;;;;5050452;28;20437;-76
2022/11/03 03:59:21;;;;;;;12.43;11.20;;;;;;;;;;5050446;28;20469;-76
2022/11/03 04:01:48;;;;;;;14.07;12.63;;;;;;;;;;5050672;28;20753;-77
2022/11/03 04:04:15;;;;;;;12.63;10.00;;;;;;;;;;5049680;28;20448;-77
2022/11/03 04:06:42;;;;;;;15.53;10.47;;;;;;;;;;5050565;28;20442;-77
2022/11/03 04:09:10;;;;;;;12.77;11.10;;;;;;;;;;5050331;28;20441;-76
2022/11/03 04:22:44;;;;;;;12.03;10.83;;;;;;;;;;5049268;28;20803;-77
2022/11/03 04:25:13;;;;;;;15.37;12.20;;;;;;;;;;5055947;28;20452;-75
2022/11/03 04:27:41;;;;;;;13.80;11.63;;;;;;;;;;5063092;28;20451;-76
2022/11/03 04:30:14;;;;;;;12.80;11.50;;;;;;;;;;5066937;28;20539;-76
2022/11/03 04:32:41;;;;;;;12.70;11.50;;;;;;;;;;5066841;28;20498;-77
2022/11/03 04:35:15;;;;;;;14.80;12.00;;;;;;;;;;5069895;28;20449;-77
2022/11/03 04:37:42;;;;;;;13.20;11.20;;;;;;;;;;5069859;28;20480;-76
2022/11/03 04:40:14;;;;;;;17.43;11.97;;;;;;;;;;5069795;28;20450;-77
2022/11/03 04:42:42;;;;;;;13.70;12.10;;;;;;;;;;5068994;28;20531;-77
2022/11/03 04:45:14;;;;;;;16.30;11.90;;;;;;;;;;5069397;28;20444;-76
2022/11/03 04:47:41;;;;;;;15.40;11.93;;;;;;;;;;5070032;28;20441;-77
2022/11/03 04:50:15;;;;;;;15.20;12.30;;;;;;;;;;5069781;28;20445;-77
2022/11/03 04:52:42;;;;;;;12.73;10.80;;;;;;;;;;5068285;28;20838;-76
2022/11/03 04:55:10;;;;;;;18.40;11.20;;;;;;;;;;5069640;28;20963;-76
2022/11/03 04:57:39;;;;;;;13.00;11.63;;;;;;;;;;5069344;28;20487;-77
2022/11/03 05:00:11;;;;;;;13.27;11.83;;;;;;;;;;5069251;28;20461;-76
2022/11/03 05:02:38;;;;;;;14.30;12.40;;;;;;;;;;5068861;28;20465;-76
2022/11/03 05:05:10;;;;;;;13.27;11.87;;;;;;;;;;5069480;28;20446;-76
2022/11/03 05:07:37;;;;;;;16.77;11.77;;;;;;;;;;5069453;28;20458;-76
2022/11/03 05:10:05;;;;;;;16.10;13.23;;;;;;;;;;5069388;28;20453;-76
2022/11/03 05:12:32;;;;;;;15.50;11.90;;;;;;;;;;5062292;28;20460;-77
2022/11/03 05:14:59;;;;;;;13.20;11.50;;;;;;;;;;5049294;28;20959;-76
2022/11/03 05:17:28;;;;;;;16.23;12.47;;;;;;;;;;5049241;28;20847;-77
2022/11/03 05:19:57;;;;;;;16.73;12.30;;;;;;;;;;5049514;28;20451;-77
2022/11/03 05:22:26;;;;;;;15.17;12.23;;;;;;;;;;5049226;28;20470;-76
2022/11/03 05:24:56;;;;;;;16.07;11.20;;;;;;;;;;5064407;28;20449;-76
2022/11/03 05:27:24;;;;;;;13.87;10.60;;;;;;;;;;5069575;28;20464;-76
2022/11/03 05:29:52;;;;;;;12.93;11.63;;;;;;;;;;5069616;28;20460;-76
2022/11/03 05:32:21;;;;;;;12.27;10.90;;;;;;;;;;5069428;28;20452;-77
2022/11/03 05:34:50;;;;;;;15.73;11.73;;;;;;;;;;5068882;28;20467;-76
2022/11/03 05:37:24;;;;;;;11.60;10.47;;;;;;;;;;5068966;28;20450;-76
2022/11/03 05:39:51;;;;;;;13.40;12.10;;;;;;;;;;5069556;28;20452;-77
2022/11/03 05:42:25;;;;;;;14.60;12.57;;;;;;;;;;5069355;28;20547;-78
2022/11/03 05:44:52;;;;;;;14.00;11.27;;;;;;;;;;5068624;28;20447;-77
2022/11/03 05:47:21;;;;;;;15.10;12.30;;;;;;;;;;5069063;28;20457;-76
2022/11/03 05:49:51;;;;;;;13.40;12.00;;;;;;;;;;5069424;28;20445;-76
2022/11/03 05:52:20;;;;;;;13.60;10.33;;;;;;;;;;5069068;28;20490;-77
2022/11/03 05:54:47;;;;;;;13.20;11.63;;;;;;;;;;5068326;28;20968;-76
2022/11/03 05:57:15;;;;;;;12.90;11.13;;;;;;;;;;5069115;28;20449;-76
2022/11/03 05:59:44;;;;;;;13.60;11.50;;;;;;;;;;5069369;28;20469;-75
2022/11/03 06:02:23;;;;;;;12.83;11.60;;;;;;;;;;5069128;28;20486;-77
2022/11/03 06:04:52;;;;;;;16.90;12.73;;;;;;;;;;5068717;28;20946;-76
2022/11/03 06:07:24;;;;;;;13.43;12.03;;;;;;;;;;5072531;28;20478;-77
2022/11/03 06:09:52;;;;;;;16.37;12.20;;;;;;;;;;5073466;28;20445;-76
2022/11/03 06:12:21;;;;;;;15.70;12.73;;;;;;;;;;5068693;28;20467;-77
2022/11/03 06:14:48;;;;;;;14.13;12.60;;;;;;;;;;5051804;28;20447;-77
2022/11/03 06:17:20;;;;;;;14.23;12.73;;;;;;;;;;5052594;28;20814;-75
2022/11/03 06:19:48;;;;;;;14.43;11.40;;;;;;;;;;5052873;28;20446;-76
2022/11/03 06:22:19;;;;;;;16.90;12.43;;;;;;;;;;5052653;28;20462;-76
2022/11/03 06:24:46;;;;;;;13.40;11.97;;;;;;;;;;5051828;28;20508;-77
2022/11/03 06:27:14;;;;;;;14.17;12.20;;;;;;;;;;5052844;28;20471;-76
2022/11/03 06:29:42;;;;;;;18.97;12.80;;;;;;;;;;5052401;28;20454;-77
2022/11/03 06:32:10;;;;;;;13.27;11.73;;;;;;;;;;5052458;28;20463;-76
2022/11/03 06:34:40;;;;;;;14.13;11.60;;;;;;;;;;5051300;28;20462;-77
2022/11/03 06:37:12;;;;;;;15.60;12.60;;;;;;;;;;5051950;28;20444;-75
2022/11/03 06:39:40;;;;;;;13.47;12.10;;;;;;;;;;5051965;28;20492;-76
2022/11/03 06:42:14;;;;;;;17.33;12.60;;;;;;;;;;5054704;28;20476;-77
2022/11/03 06:44:42;;;;;;;14.23;12.00;;;;;;;;;;5067470;28;20445;-77
2022/11/03 06:47:15;;;;;;;16.90;12.87;;;;;;;;;;5064727;28;20968;-76
2022/11/03 06:49:43;;;;;;;21.43;13.80;;;;;;;;;;5071883;28;20434;-77
2022/11/03 06:52:16;;;;;;;16.77;13.13;;;;;;;;;;5071972;28;20484;-77
2022/11/03 06:54:47;;;;;;;19.40;11.90;;;;;;;;;;5071325;28;20808;-77
2022/11/03 06:57:16;;;;;;;17.57;12.60;;;;;;;;;;5072190;28;20445;-77
2022/11/03 06:59:43;;;;;;;14.60;12.77;;;;;;;;;;5072029;28;20495;-78
2022/11/03 07:02:22;;;;;;;17.23;12.10;;;;;;;;;;5072734;28;20461;-76
2022/11/03 07:04:50;;;;;;;15.87;12.07;;;;;;;;;;5073224;28;20786;-77
2022/11/03 07:07:17;;;;;;;14.57;13.10;;;;;;;;;;5073840;28;20564;-76
2022/11/03 07:09:45;;;;;;;14.23;12.83;;;;;;;;;;5072313;28;20449;-77
2022/11/03 07:12:17;;;;;;;14.27;12.77;;;;;;;;;;5072520;28;20470;-77
2022/11/03 07:14:44;;;;;;;15.10;11.00;;;;;;;;;;5067545;28;20453;-77
2022/11/03 07:17:16;;;;;;;13.70;11.73;;;;;;;;;;5068073;28;20467;-76
2022/11/03 07:19:44;;;;;;;13.13;11.80;;;;;;;;;;5070758;28;20474;-75
2022/11/03 07:22:17;;;;;;;12.97;10.80;;;;;;;;;;5083158;28;20468;-77
2022/11/03 07:24:46;;;;;;;12.37;11.07;;;;;;;;;;5083959;28;20449;-75
2022/11/03 07:27:15;;;;;;;15.20;10.77;;;;;;;;;;5085218;28;20462;-76
2022/11/03 07:29:43;;;;;;;17.03;10.87;;;;;;;;;;5083905;28;20442;-77
2022/11/03 07:32:13;;;;;;;13.30;12.00;;;;;;;;;;5083634;28;21041;-77
2022/11/03 07:34:40;;;;;;;20.97;12.13;;;;;;;;;;5075702;28;20449;-76
2022/11/03 07:37:08;;;;;;;14.27;12.00;;;;;;;;;;5072623;28;20440;-77
2022/11/03 07:39:38;;;;;;;16.43;11.53;;;;;;;;;;5071951;28;20482;-76
2022/11/03 07:42:14;;;;;;;17.00;10.97;;;;;;;;;;5071005;28;20496;-77
2022/11/03 07:44:41;;;;;;;14.33;10.57;;;;;;;;;;5073100;28;20460;-77
2022/11/03 07:47:11;;;;;;;13.27;11.87;;;;;;;;;;5074419;28;20620;-77
2022/11/03 07:49:38;;;;;;;12.33;10.73;;;;;;;;;;5072660;28;20444;-76
2022/11/03 07:52:09;;;;;;;14.17;10.50;;;;;;;;;;5071780;28;20475;-76
2022/11/03 07:54:36;;;;;;;12.47;10.17;;;;;;;;;;5071062;28;20452;-77
2022/11/03 07:57:06;;;;;;;10.93;9.87;;;;;;;;;;5070709;28;20530;-76
2022/11/03 07:59:37;;;;;;;11.80;10.00;;;;;;;;;;5070994;28;20474;-76
2022/11/03 08:02:16;;;;;;;19.80;10.77;;;;;;;;;;5071211;28;20480;-76
2022/11/03 08:04:43;;;;;;;13.30;11.37;;;;;;;;;;5071442;28;20456;-76
2022/11/03 08:07:10;;;;;;;12.37;9.33;;;;;;;;;;5070556;28;20803;-77
2022/11/03 08:09:37;;;;;;;12.83;10.40;;;;;;;;;;5071103;28;20440;-77
2022/11/03 08:12:04;;;;;;;15.23;10.33;;;;;;;;;;5068722;28;20457;-77
2022/11/03 08:14:31;;;;;;;15.60;10.77;;;;;;;;;;5050426;28;20449;-76
2022/11/03 08:17:00;;;;;;;15.17;10.30;;;;;;;;;;5050551;28;20448;-75
2022/11/03 08:19:27;;;;;;;9.77;8.73;;;;;;;;;;5050476;28;20560;-77
2022/11/03 08:21:54;;;;;;;10.33;8.63;;;;;;;;;;5050261;28;20496;-76
2022/11/03 08:24:21;;;;;;;13.17;9.73;;;;;;;;;;5050266;28;20449;-76
2022/11/03 08:26:48;;;;;;;10.13;8.93;;;;;;;;;;5051378;28;20448;-77
2022/11/03 08:29:16;;;;;;;15.60;9.70;;;;;;;;;;5050508;28;20441;-77
2022/11/03 08:31:43;;;;;;;10.53;8.63;;;;;;;;;;5050515;28;20476;-76
2022/11/03 08:34:12;;;;;;;13.17;9.33;;;;;;;;;;5049466;28;20468;-76
2022/11/03 08:36:39;;;;;;;9.90;8.90;;;;;;;;;;5050630;28;20438;-77
2022/11/03 08:39:06;;;;;;;12.60;9.43;;;;;;;;;;5050588;28;20473;-76
2022/11/03 08:41:33;;;;;;;10.70;9.60;;;;;;;;;;5050563;28;20533;-76
2022/11/03 08:44:00;;;;;;;10.57;9.00;;;;;;;;;;5051355;28;20477;-76
2022/11/03 08:46:27;;;;;;;10.30;9.30;;;;;;;;;;5050023;28;21012;-75
2022/11/03 08:48:54;;;;;;;11.07;9.73;;;;;;;;;;5049834;28;20441;-75
2022/11/03 08:51:22;;;;;;;11.40;8.80;;;;;;;;;;5049912;28;20441;-76
2022/11/03 08:53:52;;;;;;;11.17;9.53;;;;;;;;;;5049470;28;20449;-76
2022/11/03 08:56:20;;;;;;;14.10;9.37;;;;;;;;;;5050137;28;20852;-77
2022/11/03 08:58:47;;;;;;;11.17;9.67;;;;;;;;;;5049794;28;20564;-75
2022/11/03 09:01:14;;;;;;;14.93;9.63;;;;;;;;;;5064415;28;20452;-76
2022/11/03 09:03:41;;;;;;;10.67;9.67;;;;;;;;;;5062740;28;20839;-77
2022/11/03 09:06:09;;;;;;;10.73;9.73;;;;;;;;;;5070306;28;20451;-75
2022/11/03 09:08:37;;;;;;;10.10;9.07;;;;;;;;;;5070551;28;20516;-76
2022/11/03 09:11:05;;;;;;;13.90;9.37;;;;;;;;;;5072822;28;20537;-75
2022/11/03 09:13:32;;;;;;;9.13;8.20;;;;;;;;;;5086554;28;20472;-76
2022/11/03 09:15:59;;;;;;;12.73;8.27;;;;;;;;;;5079359;28;20451;-76
2022/11/03 09:18:26;;;;;;;17.10;9.27;;;;;;;;;;5074460;28;20590;-75
2022/11/03 09:20:53;;;;;;;13.37;8.93;;;;;;;;;;5071845;28;20445;-75
2022/11/03 09:23:21;;;;;;;18.80;9.33;;;;;;;;;;5070781;28;20580;-75
2022/11/03 09:25:49;;;;;;;14.03;10.23;;;;;;;;;;5070962;28;20939;-75
2022/11/03 09:28:17;;;;;;;11.17;9.00;;;;;;;;;;5064788;28;20821;-76
2022/11/03 09:30:44;;;;;;;10.63;8.20;;;;;;;;;;5062228;28;20465;-75
2022/11/03 09:33:11;;;;;;;10.10;8.87;;;;;;;;;;5068657;28;21002;-75
2022/11/03 09:35:38;;;;;;;10.60;7.23;;;;;;;;;;5067601;28;20452;-75
2022/11/03 09:38:06;;;;;;;9.20;8.20;;;;;;;;;;5070039;28;20449;-75
2022/11/03 09:40:34;;;;;;;10.67;7.90;;;;;;;;;;5067220;28;20536;-75
2022/11/03 09:43:03;;;;;;;12.23;8.00;;;;;;;;;;5057805;28;20576;-76
2022/11/03 09:45:30;;;;;;;9.70;7.30;;;;;;;;;;5065268;28;20444;-76
2022/11/03 09:47:57;;;;;;;8.37;7.40;;;;;;;;;;5073546;28;20441;-77
2022/11/03 09:50:27;;;;;;;13.93;9.03;;;;;;;;;;5074459;28;20451;-76
2022/11/03 09:52:54;;;;;;;14.17;9.27;;;;;;;;;;5078877;28;20968;-77
2022/11/03 09:55:23;;;;;;;15.33;9.97;;;;;;;;;;5062969;28;20445;-75
2022/11/03 09:57:52;;;;;;;10.30;8.00;;;;;;;;;;5072085;28;20437;-75
2022/11/03 10:00:22;;;;;;;13.17;9.17;;;;;;;;;;5073567;28;20491;-76
2022/11/03 10:02:49;;;;;;;14.33;8.70;;;;;;;;;;5072717;28;20465;-76
2022/11/03 10:05:19;;;;;;;12.80;8.90;;;;;;;;;;5073248;28;20471;-77
2022/11/03 10:07:56;;;;;;;10.57;8.17;;;;;;;;;;5074019;28;20445;-75
2022/11/03 10:10:23;;;;;;;10.37;8.40;;;;;;;;;;5073112;28;20459;-76
2022/11/03 10:12:52;;;;;;;10.40;7.43;;;;;;;;;;5063917;28;20465;-76
2022/11/03 10:15:22;;;;;;;10.50;7.73;;;;;;;;;;5053049;28;20949;-76
2022/11/03 10:17:49;;;;;;;11.70;9.00;;;;;;;;;;5053297;28;20460;-76
2022/11/03 10:20:17;;;;;;;11.23;8.00;;;;;;;;;;5052717;28;20984;-76
2022/11/03 10:22:46;;;;;;;16.73;8.50;;;;;;;;;;5052100;28;20472;-77
2022/11/03 10:25:35;;;;;;;18.97;7.20;;;;;;;;;;5052647;28;20799;-76
2022/11/03 10:28:12;;;;;;;9.20;7.50;;;;;;;;;;5055582;28;21042;-77
2022/11/03 10:30:49;;;;;;;8.97;6.73;;;;;;;;;;5070878;28;20882;-76
2022/11/03 10:33:27;;;;;;;12.10;7.50;;;;;;;;;;5051601;28;20847;-76
2022/11/03 10:35:54;;;;;;;9.10;6.23;;;;;;;;;;5054739;28;20544;-76
2022/11/03 10:38:27;;;;;;;12.73;6.53;;;;;;;;;;5060872;28;20450;-76
2022/11/03 10:40:54;;;;;;;10.57;7.03;;;;;;;;;;5063297;28;20468;-76
2022/11/03 10:43:21;;;;;;;9.27;6.00;;;;;;;;;;5059024;28;21258;-76
2022/11/03 10:45:54;;;;;;;8.53;6.30;;;;;;;;;;5062584;28;20457;-77
2022/11/03 10:48:23;;;;;;;9.40;6.70;;;;;;;;;;5070001;28;20461;-76
2022/11/03 10:50:50;;;;;;;7.80;6.53;;;;;;;;;;5064605;28;20542;-75
2022/11/03 10:53:19;;;;;;;7.40;6.70;;;;;;;;;;5071967;28;20490;-76
2022/11/03 10:55:46;;;;;;;8.63;6.60;;;;;;;;;;5072869;28;20448;-76
2022/11/03 10:58:13;;;;;;;10.23;6.87;;;;;;;;;;5072784;28;20494;-76
2022/11/03 11:00:41;;;;;;;10.47;7.43;;;;;;;;;;5072745;28;20480;-75
2022/11/03 11:03:12;;;;;;;10.13;7.90;;;;;;;;;;5071507;28;20472;-76
2022/11/03 11:05:45;;;;;;;8.53;6.90;;;;;;;;;;5073513;28;20425;-76
2022/11/03 11:08:13;;;;;;;7.63;6.83;;;;;;;;;;5074814;28;20939;-76
2022/11/03 11:10:43;;;;;;;10.40;7.33;;;;;;;;;;5073010;28;20440;-76
2022/11/03 11:13:24;;;;;;;11.13;7.17;;;;;;;;;;5072530;28;20456;-77
2022/11/03 11:15:52;;;;;;;11.93;8.33;;;;;;;;;;5073205;28;20429;-78
2022/11/03 11:18:38;;;;;;;12.13;7.23;;;;;;;;;;5074858;28;21028;-77
2022/11/03 11:21:30;;;;;;;9.90;7.13;;;;;;;;;;5073744;28;20441;-77
2022/11/03 11:23:57;;;;;;;11.77;7.80;;;;;;;;;;5072619;28;20452;-76
2022/11/03 11:26:31;;;;;;;8.77;7.97;;;;;;;;;;5069907;28;20468;-77
2022/11/03 11:29:19;;;;;;;7.70;7.00;;;;;;;;;;5061082;28;20834;-77
2022/11/03 11:31:46;;;;;;;10.40;8.07;;;;;;;;;;5052079;28;20837;-77
2022/11/03 11:34:32;;;;;;;8.60;7.60;;;;;;;;;;5051380;28;20457;-77
2022/11/03 11:37:17;;;;;;;9.80;7.30;;;;;;;;;;5052195;28;21037;-77
2022/11/03 11:39:46;;;;;;;11.33;7.33;;;;;;;;;;5052497;28;21024;-77
2022/11/03 11:42:14;;;;;;;13.43;7.57;;;;;;;;;;5052910;28;20465;-77
2022/11/03 11:44:56;;;;;;;9.13;7.37;;;;;;;;;;5059073;28;20445;-78
2022/11/03 11:47:25;;;;;;;9.33;7.50;;;;;;;;;;5072681;28;20417;-77
2022/11/03 11:50:01;;;;;;;8.60;7.63;;;;;;;;;;5071997;28;20435;-77
2022/11/03 11:52:28;;;;;;;11.33;8.80;;;;;;;;;;5071285;28;20483;-76
2022/11/03 11:54:57;;;;;;;9.70;7.60;;;;;;;;;;5071095;28;20844;-77
2022/11/03 11:57:24;;;;;;;11.30;7.90;;;;;;;;;;5072086;28;20440;-76
2022/11/03 11:59:52;;;;;;;12.47;8.50;;;;;;;;;;5071685;28;20542;-78
2022/11/03 12:02:20;;;;;;;9.23;8.00;;;;;;;;;;5071454;28;20999;-79
2022/11/03 12:04:48;;;;;;;9.10;8.10;;;;;;;;;;5072262;28;20463;-76
2022/11/03 12:07:15;;;;;;;7.37;6.70;;;;;;;;;;5072423;28;20448;-77
2022/11/03 12:09:44;;;;;;;13.03;9.40;;;;;;;;;;5071620;28;20436;-77
2022/11/03 12:12:12;;;;;;;8.50;7.70;;;;;;;;;;5071032;28;20468;-78
2022/11/03 12:14:40;;;;;;;9.90;7.60;;;;;;;;;;5072885;28;20817;-76
2022/11/03 12:17:25;;;;;;;8.60;7.70;;;;;;;;;;5073191;28;20456;-77
2022/11/03 12:19:53;;;;;;;9.20;7.80;;;;;;;;;;5080485;28;20488;-78
2022/11/03 12:22:35;;;;;;;11.47;8.27;;;;;;;;;;5085593;28;20710;-77
2022/11/03 12:25:03;;;;;;;9.20;8.27;;;;;;;;;;5086309;28;20445;-76
2022/11/03 12:27:44;;;;;;;8.03;7.03;;;;;;;;;;5085095;28;20499;-76
2022/11/03 12:30:15;;;;;;;9.93;7.33;;;;;;;;;;5090660;28;20444;-78
2022/11/03 12:32:42;;;;;;;9.70;6.67;;;;;;;;;;5081493;28;20556;-78
2022/11/03 12:35:12;;;;;;;9.30;7.27;;;;;;;;;;5075423;28;20444;-77
2022/11/03 12:37:39;;;;;;;8.93;8.10;;;;;;;;;;5079497;28;20950;-78
2022/11/03 12:40:07;;;;;;;10.80;9.70;;;;;;;;;;5071198;28;20904;-77
2022/11/03 12:42:34;;;;;;;9.97;9.00;;;;;;;;;;5069603;28;20476;-77
2022/11/03 12:45:03;;;;;;;9.47;8.57;;;;;;;;;;5070015;28;20920;-77
2022/11/03 12:47:30;;;;;;;12.80;8.40;;;;;;;;;;5070837;28;20486;-76
2022/11/03 12:49:58;;;;;;;8.53;7.63;;;;;;;;;;5070536;28;20931;-76
2022/11/03 12:52:25;;;;;;;10.90;8.17;;;;;;;;;;5070409;28;21167;-77
2022/11/03 12:54:52;;;;;;;11.90;7.77;;;;;;;;;;5069504;28;20449;-76
2022/11/03 12:57:19;;;;;;;8.13;7.30;;;;;;;;;;5070483;28;20447;-77
2022/11/03 12:59:46;;;;;;;8.57;6.60;;;;;;;;;;5070125;28;20472;-78
2022/11/03 13:02:14;;;;;;;8.00;7.20;;;;;;;;;;5070387;28;20471;-78
2022/11/03 13:04:41;;;;;;;8.43;7.00;;;;;;;;;;5069439;28;20453;-77
2022/11/03 13:07:08;;;;;;;17.30;7.40;;;;;;;;;;5070386;28;20452;-77
2022/11/03 13:09:36;;;;;;;10.27;6.80;;;;;;;;;;5070553;28;20448;-78
2022/11/03 13:14:48;;;;;;;7.27;6.57;;;;;;;;;;5053651;28;20412;-77
2022/11/03 13:17:16;;;;;;;9.07;6.53;;;;;;;;;;5055553;28;20445;-77
2022/11/03 13:19:43;;;;;;;10.70;7.30;;;;;;;;;;5054670;28;20480;-77
2022/11/03 13:22:10;;;;;;;9.33;7.10;;;;;;;;;;5053607;28;20465;-77
2022/11/03 13:24:37;;;;;;;10.03;7.30;;;;;;;;;;5057059;28;21062;-77
2022/11/03 13:27:04;;;;;;;7.20;6.60;;;;;;;;;;5064085;28;20449;-77
2022/11/03 13:29:31;;;;;;;7.27;6.57;;;;;;;;;;5074050;28;20449;-77
2022/11/03 13:31:59;;;;;;;8.63;7.17;;;;;;;;;;5072929;28;20467;-77
2022/11/03 13:34:27;;;;;;;8.90;7.30;;;;;;;;;;5074098;28;20459;-78
2022/11/03 13:36:54;;;;;;;8.93;6.40;;;;;;;;;;5074169;28;20448;-77
2022/11/03 13:39:21;;;;;;;6.80;6.10;;;;;;;;;;5073280;28;20956;-79
2022/11/03 13:41:48;;;;;;;9.37;7.37;;;;;;;;;;5073734;28;20467;-77
2022/11/03 13:44:15;;;;;;;8.20;6.67;;;;;;;;;;5072741;28;20449;-79
2022/11/03 13:46:42;;;;;;;10.30;7.27;;;;;;;;;;5073721;28;20453;-77
2022/11/03 13:49:10;;;;;;;8.20;7.40;;;;;;;;;;5073440;28;20982;-78
2022/11/03 13:51:38;;;;;;;10.90;7.37;;;;;;;;;;5073107;28;20944;-79
2022/11/03 13:54:05;;;;;;;10.80;6.30;;;;;;;;;;5069127;28;20980;-77
2022/11/03 13:56:32;;;;;;;7.50;6.83;;;;;;;;;;5069185;28;20451;-78
2022/11/03 13:58:59;;;;;;;10.57;7.17;;;;;;;;;;5074003;28;20456;-78
2022/11/03 14:01:26;;;;;;;9.97;7.80;;;;;;;;;;5072400;28;21023;-78
2022/11/03 14:03:53;;;;;;;9.77;7.23;;;;;;;;;;5066290;28;21224;-79
2022/11/03 14:06:20;;;;;;;9.60;7.93;;;;;;;;;;5054175;28;20467;-78
2022/11/03 14:08:49;;;;;;;8.53;7.00;;;;;;;;;;5053633;28;20446;-77
2022/11/03 14:14:00;;;;;;;11.37;7.40;;;;;;;;;;5067153;28;20516;-77
2022/11/03 14:16:27;;;;;;;12.13;7.90;;;;;;;;;;5053254;28;20452;-77
2022/11/03 14:18:54;;;;;;;8.20;7.40;;;;;;;;;;5058999;28;20462;-78
2022/11/03 14:21:21;;;;;;;10.70;7.43;;;;;;;;;;5066783;28;20484;-77
2022/11/03 14:23:50;;;;;;;7.97;7.17;;;;;;;;;;5063012;28;20837;-79
2022/11/03 14:26:17;;;;;;;9.37;7.67;;;;;;;;;;5052148;28;20986;-78
2022/11/03 14:28:44;;;;;;;10.83;7.97;;;;;;;;;;5052321;28;20473;-79
2022/11/03 14:31:11;;;;;;;10.87;8.30;;;;;;;;;;5060583;28;20852;-77
2022/11/03 14:33:38;;;;;;;8.47;7.50;;;;;;;;;;5065822;28;20486;-79
2022/11/03 14:36:05;;;;;;;9.80;8.60;;;;;;;;;;5058532;28;20535;-77
2022/11/03 14:38:32;;;;;;;10.13;7.40;;;;;;;;;;5066416;28;20445;-78
2022/11/03 14:43:46;;;;;;;9.40;7.70;;;;;;;;;;5070964;28;20621;-78
2022/11/03 14:46:13;;;;;;;9.17;8.27;;;;;;;;;;5072612;28;20445;-78
2022/11/03 14:48:40;;;;;;;13.50;7.90;;;;;;;;;;5071595;28;20449;-77
2022/11/03 14:51:07;;;;;;;12.37;9.43;;;;;;;;;;5060823;28;20445;-78
2022/11/03 14:53:34;;;;;;;12.13;7.80;;;;;;;;;;5060511;28;20461;-79
2022/11/03 14:56:02;;;;;;;12.37;8.40;;;;;;;;;;5070489;28;20456;-78
2022/11/03 14:58:29;;;;;;;11.40;8.63;;;;;;;;;;5064246;28;21003;-77
2022/11/03 15:00:56;;;;;;;12.93;8.60;;;;;;;;;;5062937;28;20477;-78
2022/11/03 15:03:24;;;;;;;13.30;9.10;;;;;;;;;;5061164;28;20488;-77